Overton, Nevada Weather observations

Data are for observation ending at time listed.
 Day   Time    Ave.   Ave.  Ave.  Vector   Max.   Stn.    Total    Solar   Ave.  
  of    of     Air    Rel.  Wind   Wind    Wind   Baro.  Precip.   Rad.    Soil  
Year   Day     Temp.  Hum.  Speed  Dir.    Gust   Pres.                    Temp. 
2026   (PST)    F      %     mph   deg.    mph     mb.     in.     W/m2     F   
------------------------------------------------------------------------------
 126   17:30   90.1    12    1.4    21      2.9   966.2    0.00     148    89.7
 126   17:40   90.2    12    0.9    10      2.3   966.1    0.00     118    89.2
 126   17:50   89.5    13    1.8    13      3.1   966.1    0.00      65    89.0
 126   18:00   88.1    13    1.6   353      2.8   966.0    0.00      25    88.3
 126   18:10   87.0    14    1.2   310      2.2   965.9    0.00      20    87.7
 126   18:20   86.6    14    1.0   314      1.8   965.7    0.00      14    87.1
 126   18:30   86.0    14    0.8   279      1.6   965.6    0.00       8    86.6
 126   18:40   84.2    16    0.6    19      2.3   965.5    0.00       3    85.6
 126   18:50   81.9    18    0.4   337      2.4   965.4    0.00       1    84.8
 126   19:00   81.0    18    0.3   342      2.0   965.5    0.00       0    84.1
 126   19:10   80.8    18    0.2   278      1.4   965.5    0.00       0    83.6
 126   19:20   80.6    18    0.0   236      1.1   965.5    0.00       0    83.0
 126   19:30   80.0    18    0.9   293      2.3   965.5    0.00       0    82.8
 126   19:40   78.3    19    1.8   290      3.1   965.6    0.00       0    81.8
 126   19:50   76.8    21    2.1   300      3.4   965.6    0.00       0    81.0
 126   20:00   75.5    22    2.1   330      3.5   965.7    0.00       0    80.9
 126   20:10   78.5    16    3.0     8      5.9   965.8    0.00       0    81.4
 126   20:20   79.5    14    4.9     7      9.0   966.0    0.00       0    81.4
 126   20:30   80.5    12    6.2     9     10.6   966.1    0.00       0    81.6
 126   20:40   80.3    12    5.7     7      8.9   966.4    0.00       0    81.3
 126   20:50   80.0    12    5.1    12      9.4   966.5    0.00       0    81.0
 126   21:00   80.0    11    6.0    13     10.9   966.6    0.00       0    80.9
 126   21:10   80.2    11    7.2    16     11.8   966.7    0.00       0    80.8
 126   21:20   79.8    11    7.5     2     11.7   966.8    0.00       0    80.5
 126   21:30   79.4    11    7.0   360     13.7   966.9    0.00       0    80.3
 126   21:40   79.4    11    6.7     2     11.5   967.1    0.00       0    80.1
 126   21:50   79.0    11    5.7     3     12.5   967.2    0.00       0    79.7
 126   22:00   78.5    11    4.9     4      8.8   967.3    0.00       0    79.4
 126   22:10   78.2    11    4.7    11      9.4   967.3    0.00       0    79.1
 126   22:20   78.4    10    6.9    12     11.2   967.4    0.00       0    79.1
 126   22:30   78.2    10    6.1    17     10.7   967.5    0.00       0    78.8
 126   22:40   77.9    10    3.0     7      7.5   967.6    0.00       0    78.4
 126   22:50   77.6    10    1.8   145      5.1   967.8    0.00       0    78.0
 126   23:00   75.9    11    4.2   183      6.8   967.8    0.00       0    77.6
 126   23:10   76.3    11    4.5   200      6.9   967.9    0.00       0    77.5
 126   23:20   76.3    11    5.0   191      7.5   967.9    0.00       0    77.3
 126   23:30   76.1    11    3.9   234      7.3   967.8    0.00       0    77.0
 126   23:40   76.7    10    4.4   273      8.3   967.7    0.00       0    77.1
 126   23:50   75.2    12    6.0   329     11.3   967.7    0.00       0    76.3
 127    0:00   74.3    12    3.4   345      7.6   967.8    0.00       0    76.0
 127    0:10   74.7    11    3.3   279      9.9   967.9    0.00       0    76.0
 127    0:20   77.3    10    5.9   339     10.7   968.0    0.00       0    76.8
 127    0:30   76.5    10    4.6   359      8.4   968.1    0.00       0    76.3
 127    0:40   74.9    11    1.7   214      3.7   968.3    0.00       0    75.5
 127    0:50   74.2    11    0.9   275      3.9   968.2    0.00       0    74.8
 127    1:00   71.6    13    1.5   349      3.6   968.0    0.00       0    73.9
 127    1:10   69.7    15    1.9   353      4.6   967.8    0.00       0    73.5
 127    1:20   69.8    13    2.9   263      5.1   967.7    0.00       0    73.5
 127    1:30   69.0    13    2.2   300      4.8   967.6    0.00       0    72.7
 127    1:40   66.9    15    0.9     5      3.4   967.6    0.00       0    72.1
 127    1:50   67.0    15    1.3   340      4.4   967.6    0.00       0    71.9
 127    2:00   65.5    15    3.8   305      5.3   967.5    0.00       0    71.0
 127    2:10   65.7    17    2.2   332      4.7   967.5    0.00       0    70.9
 127    2:20   63.7    19    2.7   320      3.9   967.5    0.00       0    70.2
 127    2:30   64.8    17    1.7   288      3.6   967.5    0.00       0    70.6
 127    2:40   64.8    17    2.8   296      4.9   967.5    0.00       0    70.1
 127    2:50   62.3    20    2.5   324      4.2   967.4    0.00       0    69.0
 127    3:00   63.2    19    0.8   269      2.0   967.4    0.00       0    69.7
 127    3:10   63.0    20    3.3   333      4.5   967.4    0.00       0    68.7
 127    3:20   61.6    22    2.7   332      4.0   967.4    0.00       0    68.3
 127    3:30   62.1    20    2.2   256      3.9   967.4    0.00       0    68.7
 127    3:40   62.9    19    1.2   274      3.4   967.4    0.00       0    68.5
 127    3:50   63.1    19    3.2   258      6.7   967.5    0.00       0    68.6
 127    4:00   63.2    18    3.0   302      5.6   967.5    0.00       0    68.1
 127    4:10   61.7    21    3.3   323      4.7   967.5    0.00       0    67.2
 127    4:20   60.5    21    3.1   315      6.4   967.6    0.00       0    67.0
 127    4:30   58.6    25    4.9   342      6.5   967.6    0.00       1    65.8
 127    4:40   58.2    24    6.5   335      7.7   967.4    0.00       4    65.4
 127    4:50   59.3    23    5.7   338      7.4   967.4    0.00       9    65.6
 127    5:00   58.3    24    5.2   333      6.7   967.5    0.00      22    65.6
 127    5:10   60.1    21    4.3   305      6.9   967.6    0.00      58    69.0
 127    5:20   62.1    20    1.1   259      3.4   967.7    0.00      85    72.3
 127    5:30   64.2    18    1.1   242      3.7   968.0    0.00     115    74.5
 127    5:40   64.3    19    3.4   245      4.9   968.2    0.00     145    76.0
 127    5:50   65.6    18    2.3   271      4.9   968.4    0.00     177    78.0
 127    6:00   67.0    17    1.5   281      3.8   968.7    0.00     211    79.4
 127    6:10   68.0    17    2.2   284      7.0   969.0    0.00     246    80.7
 127    6:20   68.7    16    4.5   304      8.8   969.2    0.00     282    79.7
 127    6:30   69.7    15    7.2   314     11.6   969.3    0.00     318    78.3
 127    6:40   70.6    15    8.2   318     11.6   969.4    0.00     354    79.9
 127    6:50   71.5    14    7.2   317     10.9   969.6    0.00     391    81.2
 127    7:00   73.0    14    6.3   324      8.5   969.6    0.00     426    82.9
 127    7:10   74.1    13    6.4   318      9.4   969.7    0.00     461    85.2
 127    7:20   74.7    12    7.3   317     10.6   969.8    0.00     495    86.4
 127    7:30   75.4    12    6.5   317     10.1   969.9    0.00     529    87.9
 127    7:40   76.0    11    7.2   316     10.4   969.9    0.00     562    89.5
 127    7:50   76.5    11    6.2   313     10.1   969.9    0.00     596    91.3
 127    8:00   77.2    11    5.9   307     10.0   969.9    0.00     627    93.6
 127    8:10   78.1    11    5.5   315      8.8   969.9    0.00     657    94.7
 127    8:20   78.9    10    4.4   309      8.0   969.9    0.00     687    97.1
 127    8:30   79.4    10    4.0   311      7.7   969.9    0.00     717    99.0
 127    8:40   80.5    10    3.0   298      5.7   969.9    0.00     746    101.2
 127    8:50   81.4    10    3.9   316      9.3   970.0    0.00     773    102.1
 127    9:00   81.8    10    3.4   325      7.6   970.0    0.00     799    101.8
 127    9:10   82.8     9    3.8   348      8.2   969.9    0.00     824    103.1
 127    9:20   83.3     9    2.7    60      5.0   969.8    0.00     848    104.9
 127    9:30   84.2     9    3.1   357      7.0   969.8    0.00     868    105.6
 127    9:40   84.3     9    3.4     8      8.1   969.8    0.00     889    106.0
 127    9:50   85.7     8    1.8     8      4.9   969.8    0.00     909    108.5
 127   10:00   85.3     8    1.7   336      6.0   969.7    0.00     925    108.0
 127   10:10   86.3     8    2.1   249      5.6   969.6    0.00     941    110.0
 127   10:20   86.2     8    2.8   242      6.4   969.5    0.00     929    110.4
 127   10:30   86.6     8    2.9   271      5.8   969.4    0.00     966    108.6
 127   10:40   87.3     7    2.3   332      6.8   969.3    0.00     975    107.4
 127   10:50   88.3     7    2.0   245      5.2   969.2    0.00     983    108.7
 127   11:00   88.9     7    1.8   193      4.7   969.2    0.00     990    110.8
 127   11:10   89.3     7    2.0   229      5.3   969.0    0.00     994    110.7
 127   11:20   89.5     7    4.0   322      8.0   968.8    0.00     997    107.9
 127   11:30   89.6     7    2.7   344      6.3   968.6    0.00     998    108.0
 127   11:40   90.8     7    2.8    15      6.2   968.4    0.00     997    107.6
 127   11:50   90.9     8    1.5   300      4.6   968.2    0.00     995    108.7
 127   12:00   91.3     8    1.3   306      3.5   968.1    0.00     991    108.9
 127   12:10   91.4     8    3.1    32      5.7   968.0    0.00     985    107.7
 127   12:20   91.6     8    1.7    68      5.3   967.8    0.00     977    108.5
 127   12:30   91.7     8    3.5    74      7.8   967.7    0.00     968    106.1
 127   12:40   91.8     9    4.2    52      8.0   967.5    0.00     958    104.5
 127   12:50   92.2     9    4.2    42      8.9   967.4    0.00     946    102.9
 127   13:00   92.6     9    4.8    38      8.1   967.2    0.00     931    101.8
 127   13:10   92.4     8    3.1    60      7.5   967.1    0.00     917    100.9
 127   13:20   93.4     8    4.5    55      8.3   966.9    0.00     900    100.4
 127   13:30   92.9     8    3.5    43      7.8   966.8    0.00     883    99.5
 127   13:40   92.9     8    3.9    16      6.9   966.6    0.00     863    98.7
 127   13:50   93.1     8    1.8   345      4.8   966.4    0.00     842    98.6
 127   14:00   93.6     8    3.5    50      7.7   966.2    0.00     819    98.5
 127   14:10   94.4     7    3.8     2      8.1   966.1    0.00     795    98.0
 127   14:20   93.5     8    4.0    92      7.5   965.9    0.00     772    98.5
 127   14:30   94.5     7    3.2   354      6.9   965.7    0.00     742    98.0
 127   14:40   95.5     7    3.6    13      7.7   965.6    0.00     714    97.7
 127   14:50   94.9     7    3.5   318      6.3   965.5    0.00     685    97.5
 127   15:00   94.7     7    3.6   256      9.3   965.4    0.00     298    97.5
 127   15:10   94.2     7    4.1   203      9.0   965.2    0.00     198    98.0
 127   15:20   94.4     7    4.4    50      8.7   965.1    0.00     378    97.2
 127   15:30   95.2     7    2.1    41      5.2   965.0    0.00     562    96.8
 127   15:40   95.9     7    2.5   129      7.2   964.9    0.00     362    96.9
 127   15:50   95.0     7    3.4   136      7.0   964.9    0.00     487    96.8
 127   16:00   95.2     7    2.6    86      5.0   964.8    0.00     451    96.4
 127   16:10   95.0     7    2.1   134      5.0   964.7    0.00     263    96.1
 127   16:20   95.2     7    1.4   124      4.0   964.6    0.00     356    95.8
 127   16:30   95.6     7    1.9   115      5.3   964.5    0.00     356    95.5
 127   16:40   95.2     7    2.9   136      8.2   964.4    0.00     322    95.4
 127   16:50   94.9     7    2.7   140      6.6   964.3    0.00     167    95.0
 127   17:00   94.9     7    3.8   149      7.0   964.1    0.00     248    95.0
 127   17:10   95.1     7    2.6   125      6.5   964.1    0.00     217    94.6
 127   17:20   95.3     7    2.3   122      5.6   963.9    0.00     185    94.2

Return to Overton, Nevada graphs page.


Western Regional Climate Center,wrcc@dri.edu